Time;durP1;ratioP1;P1;durP2;ratioP2;P2;SDS_P1;SDS_P2;PMS_P1;PMS_P2;Temp;Humidity;BMP_temperature;BMP_pressure;BME280_temperature;BME280_humidity;BME280_pressure;Samples;Min_cycle;Max_cycle;Signal;HPM_P1;HPM_P2
2023/02/27 00:00:05;;;;;;;20.20;13.40;;;;;;;10.09;69.44;101324.51;110526;1276;22151;-60
2023/02/27 00:02:37;;;;;;;18.60;12.40;;;;;;;10.09;69.54;101331.09;110513;1273;22139;-60
2023/02/27 00:05:07;;;;;;;19.30;13.70;;;;;;;10.08;69.33;101326.76;110030;1276;22370;-61
2023/02/27 00:07:35;;;;;;;15.90;12.30;;;;;;;10.06;69.36;101327.14;110528;1268;22389;-60
2023/02/27 00:10:04;;;;;;;16.20;12.40;;;;;;;10.04;69.61;101328.03;110505;1268;22410;-61
2023/02/27 00:12:38;;;;;;;15.40;12.70;;;;;;;10.02;69.56;101323.36;110538;1268;22459;-61
2023/02/27 00:15:11;;;;;;;17.20;13.50;;;;;;;9.97;69.62;101314.41;110118;1274;22312;-61
2023/02/27 00:17:45;;;;;;;18.40;13.40;;;;;;;9.96;69.73;101311.64;110487;1275;22213;-60
2023/02/27 00:20:15;;;;;;;19.60;12.50;;;;;;;9.96;70.01;101308.00;110592;1275;22363;-60
2023/02/27 00:22:45;;;;;;;16.50;13.40;;;;;;;9.97;70.15;101303.83;110572;1269;22941;-60
2023/02/27 00:25:13;;;;;;;18.20;13.40;;;;;;;9.99;70.21;101304.67;110285;1271;22845;-61
2023/02/27 00:27:42;;;;;;;15.40;12.30;;;;;;;10.00;70.08;101309.17;110598;1268;22435;-61
2023/02/27 00:30:12;;;;;;;13.80;11.20;;;;;;;10.01;69.90;101315.05;110411;1270;22337;-60
2023/02/27 00:32:42;;;;;;;15.10;12.30;;;;;;;10.01;69.91;101318.00;110417;1274;22426;-60
2023/02/27 00:35:10;;;;;;;14.60;13.10;;;;;;;9.99;69.91;101319.25;110565;1271;22290;-60
2023/02/27 00:37:39;;;;;;;15.10;12.50;;;;;;;9.97;70.11;101312.67;110599;1268;22309;-60
2023/02/27 00:40:08;;;;;;;14.50;12.10;;;;;;;9.97;70.10;101320.13;110557;1275;23126;-62
2023/02/27 00:42:36;;;;;;;13.80;12.30;;;;;;;9.97;70.09;101318.05;110137;1274;22100;-60
2023/02/27 00:45:05;;;;;;;14.80;13.10;;;;;;;9.95;70.12;101313.58;110432;1268;22146;-61
2023/02/27 00:47:33;;;;;;;14.50;12.10;;;;;;;9.93;70.36;101318.79;110249;1275;22450;-61
2023/02/27 00:50:02;;;;;;;15.30;13.70;;;;;;;9.93;70.27;101325.89;110627;1268;22383;-61
2023/02/27 00:52:32;;;;;;;14.30;12.80;;;;;;;9.92;70.37;101327.46;110605;1268;22796;-62
2023/02/27 00:55:01;;;;;;;14.20;12.50;;;;;;;9.92;70.32;101321.73;109837;1259;1002511;-61
2023/02/27 00:57:29;;;;;;;15.60;11.80;;;;;;;9.90;70.33;101320.71;110567;1275;22917;-61
2023/02/27 00:59:58;;;;;;;15.30;13.60;;;;;;;9.86;70.35;101318.84;110288;1272;22150;-61
2023/02/27 01:02:27;;;;;;;14.20;12.40;;;;;;;9.84;70.64;101321.12;110606;1269;22268;-61
2023/02/27 01:04:56;;;;;;;14.50;12.40;;;;;;;9.84;70.68;101329.79;110591;1269;22404;-61
2023/02/27 01:07:24;;;;;;;13.80;12.40;;;;;;;9.85;70.59;101325.62;110580;1268;22406;-61
2023/02/27 01:09:53;;;;;;;12.50;11.20;;;;;;;9.85;70.70;101329.77;110587;1275;23101;-61
2023/02/27 01:12:21;;;;;;;12.30;11.10;;;;;;;9.84;70.57;101335.85;110567;1275;22872;-61
2023/02/27 01:14:50;;;;;;;13.40;11.60;;;;;;;9.82;70.75;101340.20;110600;1268;22736;-61
2023/02/27 01:17:19;;;;;;;14.70;12.90;;;;;;;9.81;70.87;101347.15;110588;1267;22224;-61
2023/02/27 01:19:47;;;;;;;15.60;13.10;;;;;;;9.83;71.08;101348.69;110565;1268;22859;-61
2023/02/27 01:22:16;;;;;;;13.10;11.80;;;;;;;9.89;71.26;101349.67;110558;1272;22359;-61
2023/02/27 01:24:46;;;;;;;13.70;11.50;;;;;;;9.94;71.20;101356.55;110572;1269;22474;-61
2023/02/27 01:27:14;;;;;;;12.20;11.00;;;;;;;9.95;71.07;101356.55;110609;1275;22184;-61
2023/02/27 01:29:43;;;;;;;14.20;11.80;;;;;;;9.95;70.92;101359.15;110593;1275;22120;-61
2023/02/27 01:32:12;;;;;;;12.20;11.00;;;;;;;9.98;71.13;101362.41;110585;1270;22928;-61
2023/02/27 01:34:40;;;;;;;12.70;11.40;;;;;;;10.00;71.01;101364.29;110412;1270;22369;-61
2023/02/27 01:37:08;;;;;;;14.60;12.50;;;;;;;10.01;71.18;101364.45;110559;1275;22846;-61
2023/02/27 01:39:37;;;;;;;13.30;11.60;;;;;;;10.03;71.04;101360.96;110618;1268;22901;-62
2023/02/27 01:42:19;;;;;;;13.60;12.20;;;;;;;10.06;70.98;101365.10;110575;1269;22135;-62
2023/02/27 01:45:06;;;;;;;14.20;11.70;;;;;;;10.12;71.04;101366.46;110185;1275;23091;-61
2023/02/27 01:47:35;;;;;;;14.90;13.30;;;;;;;10.16;70.89;101365.20;110546;1275;22418;-61
2023/02/27 01:50:05;;;;;;;13.40;12.00;;;;;;;10.19;71.05;101362.74;110560;1268;22136;-61
2023/02/27 01:52:37;;;;;;;15.90;14.20;;;;;;;10.23;70.83;101358.19;110546;1269;22113;-61
2023/02/27 01:55:07;;;;;;;14.50;12.60;;;;;;;10.26;70.62;101356.26;109558;1275;1002439;-61
2023/02/27 01:57:36;;;;;;;14.70;13.20;;;;;;;10.24;70.25;101351.42;110069;1276;22495;-61
2023/02/27 02:00:05;;;;;;;15.60;12.60;;;;;;;10.20;70.49;101353.91;110565;1268;22140;-61
2023/02/27 02:02:43;;;;;;;14.50;12.80;;;;;;;10.15;70.57;101355.01;110287;1271;22088;-61
2023/02/27 02:05:14;;;;;;;14.40;12.60;;;;;;;10.11;70.71;101355.02;110485;1269;22124;-61
2023/02/27 02:07:42;;;;;;;17.00;14.40;;;;;;;10.07;70.81;101358.32;110292;1275;22386;-62
2023/02/27 02:10:11;;;;;;;17.20;14.80;;;;;;;10.06;70.88;101364.58;110568;1269;22138;-61
2023/02/27 02:12:40;;;;;;;17.80;14.30;;;;;;;10.07;71.14;101369.59;110308;1275;22100;-61
2023/02/27 02:15:12;;;;;;;16.50;14.30;;;;;;;10.07;71.17;101369.25;110532;1272;22198;-62
2023/02/27 02:18:13;;;;;;;15.70;13.40;;;;;;;10.07;71.23;101368.89;110545;1269;22116;-62
2023/02/27 02:20:51;;;;;;;16.60;13.90;;;;;;;10.04;71.20;101364.41;110591;1269;22832;-63
2023/02/27 02:23:29;;;;;;;14.10;12.60;;;;;;;10.03;71.19;101363.58;110263;1275;22299;-62
2023/02/27 02:26:37;;;;;;;16.90;14.30;;;;;;;10.02;71.43;101364.96;110537;1269;22400;-62
2023/02/27 02:29:15;;;;;;;16.90;13.60;;;;;;;10.04;71.61;101362.36;110577;1268;23118;-62
2023/02/27 02:31:52;;;;;;;15.70;13.00;;;;;;;10.03;71.38;101363.56;110541;1269;22382;-62
2023/02/27 02:34:44;;;;;;;16.00;12.70;;;;;;;10.01;71.29;101369.14;110244;1275;22340;-63
2023/02/27 02:37:25;;;;;;;15.50;13.80;;;;;;;10.00;71.30;101370.70;110586;1268;22995;-63
2023/02/27 02:40:05;;;;;;;16.50;13.40;;;;;;;9.98;71.44;101373.33;110548;1268;22139;-62
2023/02/27 02:42:42;;;;;;;18.10;14.60;;;;;;;9.96;71.46;101384.44;110557;1269;22475;-62
2023/02/27 02:45:17;;;;;;;15.50;13.00;;;;;;;9.94;71.52;101390.34;110553;1270;22098;-62
2023/02/27 02:48:07;;;;;;;19.40;14.80;;;;;;;9.93;71.35;101385.33;110534;1273;22387;-62
2023/02/27 02:50:47;;;;;;;17.50;14.40;;;;;;;9.90;71.48;101393.15;110477;1268;22348;-62
2023/02/27 02:53:38;;;;;;;15.20;13.60;;;;;;;9.88;71.84;101391.79;110054;1276;22082;-64
2023/02/27 02:56:14;;;;;;;17.00;14.30;;;;;;;9.88;71.77;101391.96;110149;1278;22219;-63
2023/02/27 02:58:50;;;;;;;19.10;14.00;;;;;;;9.85;71.79;101399.42;110126;1276;23048;-63
2023/02/27 03:01:25;;;;;;;18.70;15.10;;;;;;;9.88;71.83;101401.84;110011;1279;22298;-62
2023/02/27 03:03:56;;;;;;;18.50;15.20;;;;;;;9.91;72.10;101412.21;110051;1272;22878;-63
2023/02/27 03:06:29;;;;;;;17.80;15.40;;;;;;;9.95;72.12;101421.54;110187;1273;22972;-62
2023/02/27 03:09:06;;;;;;;19.10;15.70;;;;;;;10.00;71.98;101423.40;110165;1273;22215;-63
2023/02/27 03:11:40;;;;;;;20.10;16.10;;;;;;;10.03;71.94;101421.98;110023;1279;22165;-62
2023/02/27 03:14:21;;;;;;;19.00;16.10;;;;;;;10.06;71.72;101427.86;110025;1279;23110;-63
2023/02/27 03:16:52;;;;;;;20.80;17.00;;;;;;;10.11;71.88;101442.39;110096;1274;22341;-63
2023/02/27 03:19:23;;;;;;;19.20;15.70;;;;;;;10.18;71.89;101445.80;110103;1273;22181;-62
2023/02/27 03:22:05;;;;;;;22.30;16.00;;;;;;;10.25;71.75;101445.58;110028;1279;22335;-63
2023/02/27 03:24:39;;;;;;;20.00;16.20;;;;;;;10.32;71.26;101442.03;110244;1275;22160;-63
2023/02/27 03:27:08;;;;;;;21.10;16.40;;;;;;;10.37;71.01;101434.52;109986;1275;22332;-62
2023/02/27 03:29:41;;;;;;;18.10;15.20;;;;;;;10.39;70.76;101426.17;110593;1275;22139;-62
2023/02/27 03:32:22;;;;;;;21.30;16.20;;;;;;;10.39;70.52;101424.10;110464;1269;22270;-63
2023/02/27 03:34:50;;;;;;;18.60;16.00;;;;;;;10.37;70.42;101422.55;110058;1276;22893;-62
2023/02/27 03:37:37;;;;;;;19.60;16.00;;;;;;;10.38;70.28;101422.02;110553;1272;22267;-62
2023/02/27 03:40:05;;;;;;;21.40;17.30;;;;;;;10.38;70.20;101428.09;110320;1275;22128;-62
2023/02/27 03:42:34;;;;;;;21.30;16.50;;;;;;;10.38;70.11;101431.39;110524;1270;22177;-62
2023/02/27 03:45:14;;;;;;;20.40;16.30;;;;;;;10.39;70.10;101439.88;110561;1275;22124;-62
2023/02/27 03:47:43;;;;;;;20.40;16.70;;;;;;;10.39;69.94;101441.43;110277;1269;22432;-63
2023/02/27 03:50:12;;;;;;;24.20;18.60;;;;;;;10.37;69.85;101451.86;109486;1275;1002440;-63
2023/02/27 03:52:40;;;;;;;20.60;17.00;;;;;;;10.37;69.90;101462.95;110461;1269;22394;-63
2023/02/27 03:55:14;;;;;;;24.00;18.80;;;;;;;10.40;69.91;101463.45;110456;1275;22292;-62
2023/02/27 03:57:44;;;;;;;22.60;18.30;;;;;;;10.41;69.82;101470.55;110261;1275;23279;-62
2023/02/27 04:00:15;;;;;;;21.60;17.10;;;;;;;10.42;69.75;101462.40;109750;1272;1003016;-63
2023/02/27 04:02:49;;;;;;;20.60;16.80;;;;;;;10.42;69.41;101459.45;110325;1274;22124;-62
2023/02/27 04:05:20;;;;;;;22.60;17.80;;;;;;;10.39;69.27;101453.92;110312;1275;22316;-62
2023/02/27 04:08:12;;;;;;;23.20;18.10;;;;;;;10.37;69.44;101454.30;110347;1271;22470;-62
2023/02/27 04:11:05;;;;;;;21.10;17.50;;;;;;;10.34;69.64;101457.10;110281;1275;22356;-62
2023/02/27 04:13:39;;;;;;;22.90;18.50;;;;;;;10.32;69.70;101462.66;110435;1270;22371;-62
2023/02/27 04:16:34;;;;;;;24.60;19.30;;;;;;;10.30;69.53;101459.91;110550;1269;22117;-63
2023/02/27 04:19:11;;;;;;;21.90;17.90;;;;;;;10.29;69.87;101455.23;110100;1275;23193;-63
2023/02/27 04:21:47;;;;;;;23.00;18.50;;;;;;;10.31;69.88;101454.17;109862;1280;261548;-63
2023/02/27 04:24:36;;;;;;;23.40;18.30;;;;;;;10.33;69.84;101448.42;109945;1276;22370;-63
2023/02/27 04:27:27;;;;;;;22.40;18.30;;;;;;;10.36;69.68;101447.19;109635;1273;1002903;-62
2023/02/27 04:30:22;;;;;;;24.80;19.20;;;;;;;10.38;69.69;101443.70;110004;1280;22380;-62
2023/02/27 04:32:54;;;;;;;29.80;19.60;;;;;;;10.40;69.60;101452.86;109973;1276;22312;-62
2023/02/27 04:35:25;;;;;;;25.60;19.80;;;;;;;10.41;69.51;101454.77;109921;1280;22406;-62
2023/02/27 04:38:02;;;;;;;24.20;19.10;;;;;;;10.43;69.56;101454.58;110009;1276;22019;-62
2023/02/27 04:40:35;;;;;;;22.00;17.30;;;;;;;10.45;69.40;101450.21;109261;1281;1002721;-62
2023/02/27 04:43:03;;;;;;;;;;;;;;;10.47;69.31;101444.29;110040;1275;22442;-63
2023/02/27 04:45:32;;;;;;;24.20;17.40;;;;;;;10.50;69.15;101441.32;110022;1280;22320;-62
2023/02/27 04:48:13;;;;;;;22.60;16.50;;;;;;;10.49;68.93;101448.96;109979;1280;22189;-62
2023/02/27 04:50:48;;;;;;;23.70;17.60;;;;;;;10.45;68.87;101445.71;109164;1284;1002238;-62
2023/02/27 04:53:24;;;;;;;22.90;16.70;;;;;;;10.43;68.79;101451.80;109923;1278;22311;-61
2023/02/27 04:55:54;;;;;;;23.30;17.20;;;;;;;10.40;68.72;101459.12;110046;1278;22185;-62
2023/02/27 04:58:30;;;;;;;21.20;16.80;;;;;;;10.38;68.80;101464.34;109973;1276;23065;-62
2023/02/27 05:01:04;;;;;;;23.80;17.30;;;;;;;10.36;68.93;101466.44;110050;1276;23086;-61
2023/02/27 05:03:35;;;;;;;26.60;18.50;;;;;;;10.36;68.95;101468.00;110175;1278;22321;-63
2023/02/27 05:06:03;;;;;;;27.30;20.10;;;;;;;10.37;68.95;101468.34;110243;1274;22474;-62
2023/02/27 05:08:51;;;;;;;26.00;17.80;;;;;;;10.40;68.74;101471.27;110245;1278;22155;-61
2023/02/27 05:11:27;;;;;;;27.50;18.50;;;;;;;10.42;68.82;101473.84;110002;1277;22367;-61
2023/02/27 05:14:02;;;;;;;26.60;20.50;;;;;;;10.45;68.83;101471.54;110141;1276;22176;-61
2023/02/27 05:16:38;;;;;;;32.00;21.80;;;;;;;10.46;68.80;101474.33;110138;1274;22157;-61
2023/02/27 05:19:07;;;;;;;28.10;20.50;;;;;;;10.48;68.77;101489.91;110252;1278;23059;-61
2023/02/27 05:21:38;;;;;;;29.80;21.80;;;;;;;10.47;68.70;101487.83;110345;1275;22379;-61
2023/02/27 05:24:21;;;;;;;27.80;20.60;;;;;;;10.48;68.71;101485.06;110340;1274;22339;-61
2023/02/27 05:27:10;;;;;;;28.60;21.10;;;;;;;10.46;68.81;101487.33;110507;1272;22136;-61
2023/02/27 05:29:52;;;;;;;30.50;21.80;;;;;;;10.32;69.38;101498.91;110555;1268;22383;-61
2023/02/27 05:32:32;;;;;;;31.00;21.70;;;;;;;10.32;69.44;101511.58;110552;1269;22480;-62
2023/02/27 05:35:02;;;;;;;28.20;20.80;;;;;;;10.35;69.47;101515.17;110328;1275;22368;-62
2023/02/27 05:37:33;;;;;;;26.70;20.10;;;;;;;10.39;69.50;101525.38;110512;1275;22339;-61
2023/02/27 05:40:07;;;;;;;26.20;19.10;;;;;;;10.42;69.50;101524.32;109802;1268;1002303;-61
2023/02/27 05:42:49;;;;;;;29.70;19.40;;;;;;;10.46;69.21;101520.98;110314;1275;22290;-61
2023/02/27 05:45:22;;;;;;;30.20;20.20;;;;;;;10.57;68.40;101517.58;110375;1270;22975;-61
2023/02/27 05:48:26;;;;;;;28.00;21.00;;;;;;;10.56;68.28;101525.58;110335;1275;22359;-61
2023/02/27 05:50:54;;;;;;;27.10;20.50;;;;;;;10.56;68.65;101526.96;109954;1277;22180;-61
2023/02/27 05:53:28;;;;;;;29.30;21.40;;;;;;;10.59;68.77;101533.87;109176;1281;1002921;-61
2023/02/27 05:55:58;;;;;;;29.70;21.80;;;;;;;10.63;68.60;101539.04;109902;1279;22145;-62
2023/02/27 05:58:33;;;;;;;31.70;21.80;;;;;;;10.66;68.46;101543.19;109183;1276;1002341;-61
2023/02/27 06:01:03;;;;;;;28.90;20.90;;;;;;;10.71;68.39;101549.02;109897;1273;22266;-61
2023/02/27 06:03:32;;;;;;;26.60;19.50;;;;;;;10.75;68.24;101545.68;109954;1277;22352;-61
2023/02/27 06:06:02;;;;;;;26.00;18.10;;;;;;;10.78;68.23;101547.91;109975;1273;22371;-61
2023/02/27 06:08:31;;;;;;;24.40;17.80;;;;;;;10.83;68.09;101546.12;109970;1282;22308;-61
2023/02/27 06:10:59;;;;;;;22.80;17.80;;;;;;;10.86;67.89;101552.34;110021;1281;22176;-61
2023/02/27 06:13:28;;;;;;;21.40;17.10;;;;;;;10.89;67.71;101564.63;110042;1274;22317;-61
2023/02/27 06:15:56;;;;;;;19.70;15.80;;;;;;;10.91;67.51;101564.79;110047;1273;23172;-61
2023/02/27 06:18:24;;;;;;;23.30;16.40;;;;;;;10.92;67.48;101568.58;110007;1273;22175;-61
2023/02/27 06:20:53;;;;;;;19.60;15.70;;;;;;;10.92;67.42;101563.73;110020;1273;22488;-61
2023/02/27 06:23:24;;;;;;;21.40;16.40;;;;;;;10.94;67.25;101544.79;110011;1275;22661;-62
2023/02/27 06:25:52;;;;;;;21.50;16.50;;;;;;;10.92;67.10;101525.55;109980;1276;22167;-61
2023/02/27 06:28:20;;;;;;;22.00;17.00;;;;;;;10.87;67.05;101529.42;110357;1273;22806;-61
2023/02/27 06:30:55;;;;;;;22.50;17.70;;;;;;;10.82;67.13;101537.98;110599;1268;22308;-61
2023/02/27 06:33:25;;;;;;;24.00;17.20;;;;;;;10.77;67.26;101539.08;110213;1270;22357;-61
2023/02/27 06:35:53;;;;;;;23.80;18.50;;;;;;;10.71;67.40;101527.15;110489;1269;22343;-61
2023/02/27 06:38:21;;;;;;;29.00;19.60;;;;;;;10.67;67.46;101520.95;110491;1275;22286;-61
2023/02/27 06:40:50;;;;;;;24.80;18.20;;;;;;;10.61;67.46;101519.45;110514;1268;23211;-60
2023/02/27 06:43:21;;;;;;;26.90;19.20;;;;;;;10.52;67.48;101529.23;110467;1269;22432;-60
2023/02/27 06:45:54;;;;;;;23.40;17.70;;;;;;;10.43;67.75;101540.26;110503;1270;22855;-61
2023/02/27 06:48:23;;;;;;;23.80;16.50;;;;;;;10.35;68.04;101551.43;110511;1269;22734;-60
2023/02/27 06:50:55;;;;;;;22.60;17.10;;;;;;;10.33;68.52;101549.54;109729;1269;1002345;-60
2023/02/27 06:53:24;;;;;;;22.00;16.90;;;;;;;10.31;68.58;101551.29;110502;1268;22143;-60
2023/02/27 06:55:52;;;;;;;23.50;17.40;;;;;;;10.29;68.65;101562.41;110484;1270;22124;-60
2023/02/27 06:58:23;;;;;;;25.10;17.50;;;;;;;10.25;68.86;101571.28;110365;1275;22290;-61
2023/02/27 07:00:51;;;;;;;27.50;20.10;;;;;;;10.25;68.97;101570.94;110499;1268;22815;-60
2023/02/27 07:03:20;;;;;;;24.90;18.30;;;;;;;10.21;69.34;101569.39;110503;1269;22151;-60
2023/02/27 07:05:49;;;;;;;27.50;19.40;;;;;;;10.22;69.63;101569.04;110493;1269;22406;-61
2023/02/27 07:08:18;;;;;;;32.30;19.90;;;;;;;10.27;69.41;101568.14;110478;1275;22159;-60
2023/02/27 07:10:47;;;;;;;31.10;20.50;;;;;;;10.27;69.48;101577.84;110465;1275;23024;-60
2023/02/27 07:13:17;;;;;;;25.80;18.50;;;;;;;10.31;69.26;101584.59;110474;1275;22363;-60
2023/02/27 07:15:49;;;;;;;26.50;18.50;;;;;;;10.34;69.42;101586.82;109709;1275;1002448;-61
2023/02/27 07:18:18;;;;;;;26.80;19.10;;;;;;;10.34;69.45;101577.80;110378;1275;22312;-60
2023/02/27 07:20:50;;;;;;;29.00;19.40;;;;;;;10.36;69.67;101572.59;110527;1270;22397;-60
2023/02/27 07:23:19;;;;;;;26.20;18.10;;;;;;;10.40;69.62;101567.34;110515;1269;22266;-60
2023/02/27 07:25:52;;;;;;;23.60;17.30;;;;;;;10.44;69.45;101564.71;110516;1275;22201;-60
2023/02/27 07:28:21;;;;;;;20.50;16.00;;;;;;;10.44;69.22;101564.02;110475;1270;22337;-60
2023/02/27 07:30:52;;;;;;;22.70;16.60;;;;;;;10.42;69.22;101562.30;110470;1271;22137;-60
2023/02/27 07:33:22;;;;;;;22.70;16.60;;;;;;;10.41;69.27;101568.37;110495;1269;22391;-60
2023/02/27 07:35:50;;;;;;;22.90;15.80;;;;;;;10.42;69.16;101558.31;110478;1270;22389;-60
2023/02/27 07:38:21;;;;;;;19.40;14.80;;;;;;;10.43;69.05;101557.25;110345;1275;22140;-60
2023/02/27 07:40:51;;;;;;;20.70;14.20;;;;;;;10.37;69.23;101559.05;110486;1267;22327;-60
2023/02/27 07:43:20;;;;;;;18.10;14.40;;;;;;;10.40;69.19;101566.99;110186;1273;22297;-60
2023/02/27 07:45:49;;;;;;;21.00;16.20;;;;;;;10.42;69.12;101580.86;110470;1269;22136;-60
2023/02/27 07:48:18;;;;;;;22.20;15.90;;;;;;;10.49;69.32;101589.81;110389;1270;22145;-60
2023/02/27 07:50:46;;;;;;;20.70;15.50;;;;;;;10.57;68.92;101600.69;110499;1269;22190;-60
2023/02/27 07:53:15;;;;;;;20.80;16.10;;;;;;;10.64;68.77;101607.21;110507;1268;22212;-60
2023/02/27 07:55:45;;;;;;;19.80;15.00;;;;;;;10.70;68.63;101602.83;109582;1275;1002406;-60
2023/02/27 07:58:19;;;;;;;20.70;16.70;;;;;;;10.74;68.25;101599.15;110520;1268;22335;-60
2023/02/27 08:00:47;;;;;;;23.50;17.70;;;;;;;10.72;67.91;101604.20;110469;1275;22159;-60
2023/02/27 08:03:15;;;;;;;22.40;17.30;;;;;;;10.71;67.91;101610.28;110562;1268;22338;-60
2023/02/27 08:05:44;;;;;;;21.60;17.00;;;;;;;10.74;67.79;101611.65;110402;1275;22427;-60
2023/02/27 08:08:12;;;;;;;23.60;17.40;;;;;;;10.74;67.77;101601.58;110461;1275;22323;-60
2023/02/27 08:10:42;;;;;;;23.70;17.10;;;;;;;10.76;67.67;101605.55;110480;1268;22399;-60
2023/02/27 08:13:10;;;;;;;28.20;19.50;;;;;;;10.76;67.47;101608.33;110472;1275;22999;-60
2023/02/27 08:15:38;;;;;;;35.80;21.60;;;;;;;10.75;67.33;101614.23;110476;1268;23143;-60
2023/02/27 08:18:25;;;;;;;32.40;21.10;;;;;;;10.72;67.33;101619.30;110493;1275;22401;-60
2023/02/27 08:20:55;;;;;;;28.30;19.20;;;;;;;10.70;67.41;101625.20;110494;1275;22384;-60
2023/02/27 08:23:27;;;;;;;26.90;19.50;;;;;;;10.65;67.31;101631.15;110475;1268;23148;-59
2023/02/27 08:25:57;;;;;;;24.30;17.30;;;;;;;10.66;67.41;101630.28;110493;1268;22931;-59
2023/02/27 08:28:26;;;;;;;21.60;16.80;;;;;;;10.66;67.19;101628.38;110441;1275;22154;-59
2023/02/27 08:30:55;;;;;;;22.30;17.70;;;;;;;10.56;66.88;101621.52;110487;1268;22148;-60
2023/02/27 08:33:23;;;;;;;23.60;17.10;;;;;;;10.40;67.14;101613.48;110468;1269;22295;-56
2023/02/27 08:35:53;;;;;;;22.90;16.80;;;;;;;10.27;67.49;101608.73;110482;1269;22998;-57
2023/02/27 08:38:21;;;;;;;25.70;17.70;;;;;;;10.19;67.92;101620.05;110485;1275;23023;-56
2023/02/27 08:40:53;;;;;;;27.70;17.40;;;;;;;10.18;68.24;101626.30;110303;1275;22782;-56
2023/02/27 08:43:21;;;;;;;24.00;16.90;;;;;;;10.24;68.43;101623.83;110491;1268;22295;-56
2023/02/27 08:48:28;;;;;;;23.50;17.70;;;;;;;10.01;68.90;101623.42;104461;1299;545090;-49
2023/02/27 08:50:57;;;;;;;26.80;17.80;;;;;;;10.11;68.48;101626.69;106125;1282;25396;-52
2023/02/27 08:53:27;;;;;;;22.70;17.10;;;;;;;10.13;68.87;101629.45;106661;1283;25389;-50
2023/02/27 08:55:56;;;;;;;26.60;18.70;;;;;;;10.17;69.00;101635.14;105374;1282;1003743;-50
2023/02/27 08:58:24;;;;;;;24.60;17.80;;;;;;;10.21;69.02;101625.23;105772;1276;25466;-50
2023/02/27 09:00:55;;;;;;;22.40;17.10;;;;;;;10.16;68.84;101629.95;105591;1287;218970;-50
2023/02/27 09:03:27;;;;;;;21.90;16.40;;;;;;;10.14;69.02;101632.22;105432;1280;1003065;-50
2023/02/27 09:05:56;;;;;;;23.30;15.60;;;;;;;10.15;69.10;101647.30;106361;1279;22664;-50
2023/02/27 09:08:24;;;;;;;22.20;16.80;;;;;;;10.17;69.25;101646.59;106613;1273;25356;-51
2023/02/27 09:10:56;;;;;;;24.20;17.00;;;;;;;10.15;69.14;101635.50;106504;1276;25338;-50
2023/02/27 09:13:25;;;;;;;23.00;16.20;;;;;;;10.13;69.10;101625.12;106546;1280;24247;-50
2023/02/27 09:15:54;;;;;;;24.50;16.70;;;;;;;10.08;69.14;101621.13;105960;1276;1003344;-50
2023/02/27 09:18:24;;;;;;;20.70;15.30;;;;;;;10.03;69.25;101618.89;106553;1279;26515;-50
2023/02/27 09:20:52;;;;;;;24.60;16.30;;;;;;;10.03;69.51;101611.45;106816;1273;25466;-50
2023/02/27 09:23:20;;;;;;;22.10;16.50;;;;;;;10.02;69.63;101614.05;106379;1274;24200;-50
2023/02/27 09:25:49;;;;;;;22.70;16.80;;;;;;;10.03;69.97;101623.06;106489;1279;25304;-51
2023/02/27 09:28:18;;;;;;;25.10;18.20;;;;;;;10.02;69.86;101626.36;106331;1279;22544;-50
2023/02/27 09:30:47;;;;;;;22.20;16.70;;;;;;;9.95;69.80;101626.57;106756;1273;22549;-50
2023/02/27 09:33:16;;;;;;;23.40;17.20;;;;;;;9.91;70.29;101624.69;106817;1273;25352;-50
2023/02/27 09:35:47;;;;;;;23.90;16.30;;;;;;;9.95;70.55;101624.84;106539;1273;25557;-50
2023/02/27 09:38:16;;;;;;;20.60;15.00;;;;;;;10.00;70.76;101620.30;106889;1269;24260;-50
2023/02/27 09:40:44;;;;;;;21.40;15.50;;;;;;;10.05;70.75;101624.60;107180;1268;22657;-50
2023/02/27 09:43:15;;;;;;;23.80;16.80;;;;;;;10.04;70.47;101617.33;107342;1266;25386;-50
2023/02/27 09:45:45;;;;;;;22.30;16.80;;;;;;;9.99;70.47;101606.95;107069;1269;22608;-50
2023/02/27 09:48:31;;;;;;;23.90;16.60;;;;;;;9.94;70.63;101602.30;107081;1272;22527;-50
2023/02/27 09:50:59;;;;;;;21.70;16.90;;;;;;;9.94;70.96;101610.96;107057;1253;25355;-50
2023/02/27 09:53:37;;;;;;;22.90;16.60;;;;;;;9.92;71.14;101621.21;107002;1261;24317;-50
2023/02/27 09:56:27;;;;;;;22.00;17.40;;;;;;;9.97;71.57;101623.27;106993;1269;22530;-50
2023/02/27 09:59:31;;;;;;;22.10;15.80;;;;;;;10.06;71.70;101624.77;107244;1268;24330;-51
2023/02/27 10:02:14;;;;;;;25.50;17.30;;;;;;;10.17;71.90;101629.08;106657;1253;22636;-49
2023/02/27 10:04:54;;;;;;;22.00;17.00;;;;;;;10.30;71.79;101625.52;106724;1276;24202;-50
2023/02/27 10:07:47;;;;;;;22.70;16.90;;;;;;;10.39;71.59;101629.27;106829;1269;22536;-50
2023/02/27 10:10:15;;;;;;;24.80;17.00;;;;;;;10.45;71.45;101625.23;106841;1259;22529;-49
2023/02/27 10:13:10;;;;;;;20.00;15.30;;;;;;;10.51;71.31;101623.98;107028;1263;25425;-50
2023/02/27 10:15:45;;;;;;;22.40;16.00;;;;;;;10.54;71.10;101615.29;106400;1262;24233;-49
2023/02/27 10:18:33;;;;;;;24.30;16.40;;;;;;;10.51;70.86;101616.34;106253;1275;24224;-51
2023/02/27 10:21:06;;;;;;;23.70;16.40;;;;;;;10.47;70.74;101618.80;106294;1280;24968;-50
2023/02/27 10:23:38;;;;;;;25.50;17.00;;;;;;;10.43;70.74;101619.70;106341;1276;25435;-50
2023/02/27 10:26:09;;;;;;;20.90;14.00;;;;;;;10.39;70.68;101616.96;106611;1276;25293;-50
2023/02/27 10:28:38;;;;;;;23.70;18.00;;;;;;;10.34;70.65;101617.00;106439;1276;25310;-50
2023/02/27 10:31:14;;;;;;;21.40;15.20;;;;;;;10.31;70.81;101613.72;106491;1275;25359;-50
2023/02/27 10:33:43;;;;;;;23.40;15.70;;;;;;;10.35;70.97;101608.48;106447;1266;22814;-50
2023/02/27 10:36:11;;;;;;;20.30;15.70;;;;;;;10.37;70.83;101609.34;105525;1275;1003665;-50
2023/02/27 10:39:00;;;;;;;22.50;15.40;;;;;;;10.37;70.59;101615.23;106918;1278;25347;-50
2023/02/27 10:41:28;;;;;;;21.80;16.10;;;;;;;10.37;70.71;101620.62;106258;1278;24241;-51
2023/02/27 10:43:58;;;;;;;20.60;15.40;;;;;;;10.39;70.92;101622.34;106364;1277;25287;-49
2023/02/27 10:46:37;;;;;;;23.70;15.50;;;;;;;10.46;71.04;101620.20;106409;1276;25278;-51
2023/02/27 10:49:13;;;;;;;20.50;15.60;;;;;;;10.50;70.58;101619.47;106623;1275;22556;-50
2023/02/27 10:51:43;;;;;;;23.30;17.30;;;;;;;10.53;70.64;101621.54;106656;1276;22696;-50
2023/02/27 10:54:19;;;;;;;23.90;17.10;;;;;;;10.61;70.69;101621.30;106804;1269;22518;-50
2023/02/27 10:56:55;;;;;;;21.70;15.60;;;;;;;10.69;70.35;101620.70;106858;1269;25367;-50
2023/02/27 10:59:39;;;;;;;22.90;15.60;;;;;;;10.68;69.89;101623.83;106941;1270;25335;-50
2023/02/27 11:02:16;;;;;;;17.40;14.60;;;;;;;10.66;69.60;101621.61;107024;1259;24205;-51
2023/02/27 11:04:52;;;;;;;20.60;15.40;;;;;;;10.59;69.45;101617.85;106800;1272;22545;-50
2023/02/27 11:07:37;;;;;;;18.20;14.60;;;;;;;10.50;69.52;101613.73;106414;1272;22533;-50
2023/02/27 11:10:12;;;;;;;19.20;15.50;;;;;;;10.43;69.73;101602.70;106750;1273;25351;-50
2023/02/27 11:12:42;;;;;;;18.20;14.70;;;;;;;10.40;70.00;101604.64;106763;1257;25596;-51
2023/02/27 11:15:14;;;;;;;16.90;13.80;;;;;;;10.42;70.32;101610.52;106783;1273;24408;-50
2023/02/27 11:17:43;;;;;;;16.80;13.40;;;;;;;10.44;70.22;101608.94;106789;1272;25523;-50
2023/02/27 11:20:30;;;;;;;14.60;12.70;;;;;;;10.44;70.33;101606.34;106499;1271;25353;-50
2023/02/27 11:23:13;;;;;;;18.80;13.90;;;;;;;10.46;70.44;101609.44;106864;1273;25351;-50
2023/02/27 11:25:42;;;;;;;18.70;14.20;;;;;;;10.56;70.39;101611.80;106048;1265;1003027;-50
2023/02/27 11:28:22;;;;;;;19.50;16.50;;;;;;;10.63;69.86;101614.69;106733;1273;22539;-50
2023/02/27 11:31:06;;;;;;;21.70;16.70;;;;;;;10.63;69.75;101617.98;106664;1272;25624;-50